createdAt,value
2017-04-23T18:13:07.864Z,1019.73
2017-04-23T18:14:17.502Z,1019.76
2017-04-23T18:15:27.434Z,1019.75
2017-04-23T18:16:37.052Z,1019.68
2017-04-23T18:17:46.683Z,1019.68
2017-04-23T18:18:56.793Z,1019.68
2017-04-23T18:20:06.101Z,1019.74
2017-04-23T18:21:16.034Z,1019.75
2017-04-23T18:22:26.271Z,1019.72
2017-04-23T18:23:35.586Z,1019.78
2017-04-23T18:24:45.660Z,1019.73
2017-04-23T18:25:55.589Z,1019.76
2017-04-23T18:27:05.537Z,1019.76
2017-04-23T18:28:15.797Z,1019.73
2017-04-23T18:29:25.421Z,1019.72
2017-04-23T18:30:35.190Z,1019.74
2017-04-23T18:31:44.796Z,1019.75
2017-04-23T18:32:54.100Z,1019.77
2017-04-23T18:34:04.378Z,1019.74
2017-04-23T18:35:14.608Z,1019.73
2017-04-23T18:36:24.683Z,1019.71
2017-04-23T18:37:34.596Z,1019.76
2017-04-23T18:38:44.534Z,1019.77
2017-04-23T18:39:54.470Z,1019.76
2017-04-23T18:41:04.433Z,1019.77
2017-04-23T18:42:14.532Z,1019.76
2017-04-23T18:43:24.766Z,1019.74
2017-04-23T18:44:34.996Z,1019.78
2017-04-23T18:45:44.928Z,1019.74
2017-04-23T18:46:55.222Z,1019.72
2017-04-23T18:48:05.708Z,1019.74
2017-04-23T18:49:15.681Z,1019.76
2017-04-23T18:50:25.614Z,1019.75
2017-04-23T18:51:34.908Z,1019.77
2017-04-23T18:52:44.853Z,1019.73
2017-04-23T18:53:54.651Z,1019.76
2017-04-23T18:55:04.280Z,1019.75
2017-04-23T18:56:14.504Z,1019.75
2017-04-23T18:57:24.414Z,1019.75
2017-04-23T18:58:34.336Z,1019.74
2017-04-23T18:59:44.429Z,1019.78
2017-04-23T19:00:53.754Z,1019.77
2017-04-23T19:02:03.985Z,1019.81
2017-04-23T19:03:14.222Z,1019.77
2017-04-23T19:04:24.145Z,1019.74
2017-04-23T19:05:33.304Z,1019.78
2017-04-23T19:06:42.914Z,1019.77
2017-04-23T19:07:52.535Z,1019.79
2017-04-23T19:09:02.458Z,1019.83
2017-04-23T19:10:12.389Z,1019.81
2017-04-23T19:11:22.777Z,1019.81
2017-04-23T19:12:32.685Z,1019.81
2017-04-23T19:13:42.434Z,1019.79
2017-04-23T19:14:52.654Z,1019.8
2017-04-23T19:16:02.585Z,1019.8
2017-04-23T19:17:12.638Z,1019.84
2017-04-23T19:18:21.947Z,1019.81
2017-04-23T19:19:31.866Z,1019.84
2017-04-23T19:20:41.477Z,1019.85
2017-04-23T19:21:50.797Z,1019.87
2017-04-23T19:23:00.573Z,1019.86
2017-04-23T19:24:10.551Z,1019.89
2017-04-23T19:25:20.481Z,1019.87
2017-04-23T19:26:30.705Z,1019.9
2017-04-23T19:27:40.923Z,1019.89
2017-04-23T19:28:51.012Z,1019.9
2017-04-23T19:30:00.629Z,1019.89
2017-04-23T19:31:10.853Z,1019.92
2017-04-23T19:32:19.840Z,1019.91
2017-04-23T19:33:29.749Z,1019.91
2017-04-23T19:34:39.817Z,1019.94
2017-04-23T19:35:49.732Z,1019.94
2017-04-23T19:36:59.673Z,1019.93
2017-04-23T19:38:09.638Z,1019.99
2017-04-23T19:39:19.876Z,1019.93
2017-04-23T19:40:30.288Z,1019.94
2017-04-23T19:41:40.237Z,1019.94
2017-04-23T19:42:50.531Z,1019.97
2017-04-23T19:44:00.480Z,1019.95
2017-04-23T19:45:10.419Z,1019.94
2017-04-23T19:46:20.563Z,1019.93
2017-04-23T19:47:31.518Z,1019.97
2017-04-23T19:48:40.827Z,1019.94
2017-04-23T19:49:51.082Z,1019.95
2017-04-23T19:51:01.321Z,1019.96
2017-04-23T19:52:10.736Z,1019.98
2017-04-23T19:53:20.661Z,1019.92
2017-04-23T19:54:30.890Z,1019.92
2017-04-23T19:55:40.822Z,1019.93
2017-04-23T19:56:50.434Z,1019.92
2017-04-23T19:58:00.539Z,1019.91
2017-04-23T19:59:09.863Z,1019.92
2017-04-23T20:00:19.161Z,1019.93
2017-04-23T20:01:28.773Z,1019.88
2017-04-23T20:02:38.386Z,1019.89
2017-04-23T20:03:48.312Z,1019.86
2017-04-23T20:04:58.546Z,1019.89
2017-04-23T20:06:08.182Z,1019.86
2017-04-23T20:07:18.426Z,1019.86
2017-04-23T20:08:28.060Z,1019.86
2017-04-23T20:09:38.334Z,1019.79
2017-04-23T20:10:47.943Z,1019.82
2017-04-23T20:11:57.863Z,1019.78
2017-04-23T20:13:07.779Z,1019.84
2017-04-23T20:14:17.082Z,1019.78
2017-04-23T20:15:26.674Z,1019.77
2017-04-23T20:16:36.583Z,1019.79
2017-04-23T20:17:46.496Z,1019.82
2017-04-23T20:18:56.107Z,1019.79
2017-04-23T20:20:05.726Z,1019.77
2017-04-23T20:21:16.489Z,1019.79
2017-04-23T20:22:26.412Z,1019.79
2017-04-23T20:23:36.321Z,1019.75
2017-04-23T20:24:45.930Z,1019.75
2017-04-23T20:25:55.840Z,1019.78
2017-04-23T20:27:06.376Z,1019.74
2017-04-23T20:28:15.970Z,1019.72
2017-04-23T20:29:25.904Z,1019.73
2017-04-23T20:30:35.208Z,1019.74
2017-04-23T20:31:44.858Z,1019.69
2017-04-23T20:32:54.610Z,1019.68
2017-04-23T20:34:04.836Z,1019.71
2017-04-23T20:35:14.462Z,1019.68
2017-04-23T20:36:24.380Z,1019.65
2017-04-23T20:37:34.590Z,1019.66
2017-04-23T20:38:44.668Z,1019.64
2017-04-23T20:39:54.901Z,1019.61
2017-04-23T20:41:04.849Z,1019.6
2017-04-23T20:42:15.075Z,1019.61
2017-04-23T20:43:24.995Z,1019.6
2017-04-23T20:44:34.641Z,1019.58
2017-04-23T20:45:44.570Z,1019.57
2017-04-23T20:46:54.804Z,1019.57
2017-04-23T20:48:04.734Z,1019.55
2017-04-23T20:49:14.354Z,1019.52
2017-04-23T20:50:23.602Z,1019.54
2017-04-23T20:51:33.828Z,1019.53
2017-04-23T20:52:43.444Z,1019.52
2017-04-23T20:53:53.691Z,1019.51
2017-04-23T20:55:03.910Z,1019.49
2017-04-23T20:56:14.453Z,1019.5
2017-04-23T20:57:24.395Z,1019.46
2017-04-23T20:58:34.354Z,1019.44
2017-04-23T20:59:44.271Z,1019.42
2017-04-23T21:00:54.189Z,1019.45
2017-04-23T21:02:04.446Z,1019.46
2017-04-23T21:03:13.438Z,1019.42
2017-04-23T21:04:22.740Z,1019.42
2017-04-23T21:05:33.346Z,1019.42
2017-04-23T21:06:43.262Z,1019.43
2017-04-23T21:07:53.840Z,1019.46
2017-04-23T21:09:03.448Z,1019.4
2017-04-23T21:10:13.670Z,1019.39
2017-04-23T21:11:22.971Z,1019.38
2017-04-23T21:12:32.887Z,1019.41
2017-04-23T21:13:43.259Z,1019.39
2017-04-23T21:14:53.486Z,1019.35
2017-04-23T21:16:03.706Z,1019.34
2017-04-23T21:17:13.622Z,1019.33
2017-04-23T21:18:22.920Z,1019.33
2017-04-23T21:19:33.484Z,1019.34
2017-04-23T21:20:42.791Z,1019.32
2017-04-23T21:21:52.395Z,1019.26
2017-04-23T21:23:02.305Z,1019.27
2017-04-23T21:24:11.910Z,1019.3
2017-04-23T21:25:22.293Z,1019.27
2017-04-23T21:26:32.197Z,1019.22
2017-04-23T21:27:42.102Z,1019.26
2017-04-23T21:28:52.009Z,1019.29
2017-04-23T21:30:01.928Z,1019.23
2017-04-23T21:31:11.924Z,1019.22
2017-04-23T21:32:21.539Z,1019.23
2017-04-23T21:33:32.087Z,1019.19
2017-04-23T21:34:42.706Z,1019.19
2017-04-23T21:35:52.497Z,1019.18
2017-04-23T21:37:02.560Z,1019.17
2017-04-23T21:38:12.453Z,1019.18
2017-04-23T21:39:22.396Z,1019.18
2017-04-23T21:40:32.654Z,1019.16
2017-04-23T21:41:43.625Z,1019.14
2017-04-23T21:42:54.200Z,1019.12
2017-04-23T21:44:04.837Z,1019.12
2017-04-23T21:45:15.503Z,1019.15
2017-04-23T21:46:25.637Z,1019.13
2017-04-23T21:47:35.236Z,1019.14
2017-04-23T21:48:45.641Z,1019.15
2017-04-23T21:49:56.159Z,1019.11
2017-04-23T21:51:05.762Z,1019.06
2017-04-23T21:52:15.418Z,1019.1
2017-04-23T21:53:25.348Z,1019.09
2017-04-23T21:54:35.686Z,1019.11
2017-04-23T21:55:46.306Z,1019.07
2017-04-23T21:56:56.242Z,1019.1
2017-04-23T21:58:06.856Z,1019.09
2017-04-23T21:59:16.770Z,1019.09
2017-04-23T22:00:27.064Z,1019.07
2017-04-23T22:01:37.308Z,1019.08
2017-04-23T22:02:47.219Z,1019.09
2017-04-23T22:03:57.153Z,1019.06
2017-04-23T22:05:06.766Z,1019.06
2017-04-23T22:06:16.986Z,1019.08
2017-04-23T22:07:26.591Z,1019.03
2017-04-23T22:08:36.505Z,1019.04
2017-04-23T22:09:46.427Z,1018.99
2017-04-23T22:10:56.655Z,1019.01
2017-04-23T22:12:06.841Z,1018.99
2017-04-23T22:13:16.752Z,1018.95
2017-04-23T22:14:26.667Z,1018.92
2017-04-23T22:15:36.570Z,1018.94
2017-04-23T22:16:45.881Z,1018.89
2017-04-23T22:17:56.095Z,1018.9
2017-04-23T22:19:06.011Z,1018.9
2017-04-23T22:20:15.306Z,1018.88
2017-04-23T22:21:25.229Z,1018.9
2017-04-23T22:22:35.140Z,1018.93
2017-04-23T22:23:45.499Z,1018.89
2017-04-23T22:24:54.796Z,1018.83
2017-04-23T22:26:05.046Z,1018.82
2017-04-23T22:27:15.276Z,1018.85
2017-04-23T22:28:24.885Z,1018.85
2017-04-23T22:29:34.637Z,1018.87
2017-04-23T22:30:44.242Z,1018.83
2017-04-23T22:31:54.151Z,1018.82
2017-04-23T22:33:03.759Z,1018.83
2017-04-23T22:34:13.116Z,1018.83
2017-04-23T22:35:23.580Z,1018.8
2017-04-23T22:36:33.504Z,1018.81
2017-04-23T22:37:43.706Z,1018.78
2017-04-23T22:38:53.921Z,1018.77
2017-04-23T22:40:03.828Z,1018.79
2017-04-23T22:41:14.043Z,1018.74
2017-04-23T22:42:24.259Z,1018.71
2017-04-23T22:43:34.194Z,1018.73
2017-04-23T22:44:43.501Z,1018.74
2017-04-23T22:45:53.413Z,1018.74
2017-04-23T22:47:03.655Z,1018.7
2017-04-23T22:48:13.242Z,1018.71
2017-04-23T22:49:23.143Z,1018.65
2017-04-23T22:50:32.746Z,1018.68
2017-04-23T22:51:42.657Z,1018.67
2017-04-23T22:52:52.860Z,1018.64
2017-04-23T22:54:03.071Z,1018.62
2017-04-23T22:55:12.983Z,1018.61
2017-04-23T22:56:22.886Z,1018.61
2017-04-23T22:57:32.792Z,1018.61
2017-04-23T22:58:42.788Z,1018.63
2017-04-23T22:59:52.395Z,1018.6
2017-04-23T23:01:02.004Z,1018.6
2017-04-23T23:02:11.596Z,1018.54
2017-04-23T23:03:21.500Z,1018.55
2017-04-23T23:04:32.003Z,1018.5
2017-04-23T23:05:41.905Z,1018.5
2017-04-23T23:06:51.499Z,1018.52
2017-04-23T23:08:01.398Z,1018.53
2017-04-23T23:09:11.295Z,1018.54
2017-04-23T23:10:21.821Z,1018.53
2017-04-23T23:11:31.734Z,1018.5
2017-04-23T23:12:41.631Z,1018.52
2017-04-23T23:13:51.223Z,1018.51
2017-04-23T23:15:01.451Z,1018.5
2017-04-23T23:16:11.094Z,1018.47
2017-04-23T23:17:21.303Z,1018.43
2017-04-23T23:18:31.518Z,1018.45
2017-04-23T23:19:41.407Z,1018.44
2017-04-23T23:20:51.356Z,1018.41
2017-04-23T23:22:01.106Z,1018.39
2017-04-23T23:23:11.002Z,1018.4
2017-04-23T23:24:21.200Z,1018.35
2017-04-23T23:25:31.422Z,1018.37
2017-04-23T23:26:41.327Z,1018.28
2017-04-23T23:27:51.845Z,1018.29
2017-04-23T23:29:01.784Z,1018.24
2017-04-23T23:30:12.001Z,1018.24
2017-04-23T23:31:22.204Z,1018.23
2017-04-23T23:32:32.112Z,1018.24
2017-04-23T23:33:42.499Z,1018.21
2017-04-23T23:34:52.716Z,1018.14
2017-04-23T23:36:02.919Z,1018.15
2017-04-23T23:37:12.824Z,1018.13
2017-04-23T23:38:23.035Z,1018.17
2017-04-23T23:39:33.248Z,1018.16
2017-04-23T23:40:42.833Z,1018.13
2017-04-23T23:41:52.442Z,1018.11
2017-04-23T23:43:02.668Z,1018.12
2017-04-23T23:44:12.267Z,1018.08
2017-04-23T23:45:22.825Z,1018.06
2017-04-23T23:46:32.717Z,1018.06
2017-04-23T23:47:42.925Z,1018.04
2017-04-23T23:48:52.864Z,1017.99
2017-04-23T23:50:03.072Z,1017.97
2017-04-23T23:51:13.267Z,1017.95
2017-04-23T23:52:22.877Z,1017.95
2017-04-23T23:53:32.475Z,1017.92
2017-04-23T23:54:42.067Z,1017.88
2017-04-23T23:55:51.969Z,1017.87
2017-04-23T23:57:02.522Z,1017.89
2017-04-23T23:58:12.440Z,1017.83
2017-04-23T23:59:22.335Z,1017.82
